sensor_id;sensor_type;location;lat;lon;timestamp;pressure;altitude;pressure_sealevel;temperature;humidity
17525;BME280;40431;52.198;9.902;2023-01-16T00:00:13;98978.31;;;5.28;85.81
17525;BME280;40431;52.198;9.902;2023-01-16T00:02:40;98968.53;;;5.27;85.21
17525;BME280;40431;52.198;9.902;2023-01-16T00:05:08;98970.16;;;5.30;85.34
17525;BME280;40431;52.198;9.902;2023-01-16T00:07:34;98960.19;;;5.32;85.57
17525;BME280;40431;52.198;9.902;2023-01-16T00:10:01;98962.09;;;5.30;85.75
17525;BME280;40431;52.198;9.902;2023-01-16T00:12:28;98953.91;;;5.31;85.94
17525;BME280;40431;52.198;9.902;2023-01-16T00:14:54;98949.81;;;5.26;85.60
17525;BME280;40431;52.198;9.902;2023-01-16T00:17:21;98949.59;;;5.29;85.97
17525;BME280;40431;52.198;9.902;2023-01-16T00:19:47;98965.72;;;5.29;86.13
17525;BME280;40431;52.198;9.902;2023-01-16T00:22:15;98948.75;;;5.28;85.96
17525;BME280;40431;52.198;9.902;2023-01-16T00:24:41;98944.44;;;5.26;86.22
17525;BME280;40431;52.198;9.902;2023-01-16T00:27:08;98934.63;;;5.25;86.37
17525;BME280;40431;52.198;9.902;2023-01-16T00:29:34;98942.69;;;5.25;86.85
17525;BME280;40431;52.198;9.902;2023-01-16T00:32:01;98927.34;;;5.27;87.03
17525;BME280;40431;52.198;9.902;2023-01-16T00:34:27;98923.50;;;5.31;87.04
17525;BME280;40431;52.198;9.902;2023-01-16T00:36:54;98920.81;;;5.31;86.86
17525;BME280;40431;52.198;9.902;2023-01-16T00:39:21;98916.00;;;5.36;86.74
17525;BME280;40431;52.198;9.902;2023-01-16T00:41:48;98910.81;;;5.33;86.71
17525;BME280;40431;52.198;9.902;2023-01-16T00:44:14;98906.59;;;5.29;87.02
17525;BME280;40431;52.198;9.902;2023-01-16T00:46:41;98910.47;;;5.25;87.11
17525;BME280;40431;52.198;9.902;2023-01-16T00:49:07;98893.66;;;5.21;87.14
17525;BME280;40431;52.198;9.902;2023-01-16T00:51:34;98898.41;;;5.17;87.20
17525;BME280;40431;52.198;9.902;2023-01-16T00:54:00;98896.88;;;5.13;87.54
17525;BME280;40431;52.198;9.902;2023-01-16T00:56:28;98892.25;;;5.15;87.09
17525;BME280;40431;52.198;9.902;2023-01-16T00:58:54;98880.94;;;5.10;87.23
17525;BME280;40431;52.198;9.902;2023-01-16T01:01:21;98889.66;;;5.14;87.52
17525;BME280;40431;52.198;9.902;2023-01-16T01:03:47;98889.19;;;5.07;87.98
17525;BME280;40431;52.198;9.902;2023-01-16T01:06:14;98890.94;;;5.08;88.59
17525;BME280;40431;52.198;9.902;2023-01-16T01:08:40;98890.94;;;5.08;89.33
17525;BME280;40431;52.198;9.902;2023-01-16T01:11:08;98886.31;;;5.10;89.92
17525;BME280;40431;52.198;9.902;2023-01-16T01:13:36;98882.22;;;5.05;91.01
17525;BME280;40431;52.198;9.902;2023-01-16T01:16:03;98883.63;;;5.10;91.18
17525;BME280;40431;52.198;9.902;2023-01-16T01:18:30;98882.66;;;5.11;91.58
17525;BME280;40431;52.198;9.902;2023-01-16T01:20:57;98878.25;;;5.10;91.59
17525;BME280;40431;52.198;9.902;2023-01-16T01:23:23;98888.59;;;5.16;91.70
17525;BME280;40431;52.198;9.902;2023-01-16T01:25:50;98876.44;;;5.11;91.90
17525;BME280;40431;52.198;9.902;2023-01-16T01:28:17;98889.78;;;5.12;92.51
17525;BME280;40431;52.198;9.902;2023-01-16T01:30:45;98883.50;;;5.12;93.38
17525;BME280;40431;52.198;9.902;2023-01-16T01:33:12;98875.97;;;5.04;93.55
17525;BME280;40431;52.198;9.902;2023-01-16T01:35:39;98876.84;;;5.05;94.10
17525;BME280;40431;52.198;9.902;2023-01-16T01:38:05;98869.28;;;4.97;94.54
17525;BME280;40431;52.198;9.902;2023-01-16T01:40:32;98858.16;;;4.89;95.28
17525;BME280;40431;52.198;9.902;2023-01-16T01:42:58;98866.78;;;4.94;94.96
17525;BME280;40431;52.198;9.902;2023-01-16T01:45:26;98862.16;;;4.96;94.99
17525;BME280;40431;52.198;9.902;2023-01-16T01:47:57;98858.34;;;5.00;95.24
17525;BME280;40431;52.198;9.902;2023-01-16T01:50:34;98845.31;;;4.94;95.25
17525;BME280;40431;52.198;9.902;2023-01-16T01:53:04;98844.81;;;5.01;94.89
17525;BME280;40431;52.198;9.902;2023-01-16T01:55:32;98838.00;;;4.96;95.10
17525;BME280;40431;52.198;9.902;2023-01-16T01:58:00;98837.25;;;4.94;95.84
17525;BME280;40431;52.198;9.902;2023-01-16T02:00:28;98824.09;;;4.89;96.23
17525;BME280;40431;52.198;9.902;2023-01-16T02:03:02;98817.88;;;4.89;96.05
17525;BME280;40431;52.198;9.902;2023-01-16T02:05:32;98826.72;;;4.91;95.72
17525;BME280;40431;52.198;9.902;2023-01-16T02:08:01;98813.97;;;4.80;96.28
17525;BME280;40431;52.198;9.902;2023-01-16T02:10:34;98808.59;;;4.80;96.12
17525;BME280;40431;52.198;9.902;2023-01-16T02:13:03;98811.94;;;4.83;96.60
17525;BME280;40431;52.198;9.902;2023-01-16T02:15:29;98805.38;;;4.75;97.04
17525;BME280;40431;52.198;9.902;2023-01-16T02:17:57;98795.38;;;4.77;96.64
17525;BME280;40431;52.198;9.902;2023-01-16T02:20:56;98800.47;;;4.81;96.57
17525;BME280;40431;52.198;9.902;2023-01-16T02:23:56;98800.75;;;4.77;96.79
17525;BME280;40431;52.198;9.902;2023-01-16T02:26:43;98804.09;;;4.80;96.99
17525;BME280;40431;52.198;9.902;2023-01-16T02:32:25;98793.06;;;4.71;97.50
17525;BME280;40431;52.198;9.902;2023-01-16T02:35:06;98786.00;;;4.70;97.88
17525;BME280;40431;52.198;9.902;2023-01-16T02:37:40;98777.84;;;4.71;98.15
17525;BME280;40431;52.198;9.902;2023-01-16T02:40:19;98770.97;;;4.67;98.61
17525;BME280;40431;52.198;9.902;2023-01-16T02:42:55;98763.38;;;4.74;98.65
17525;BME280;40431;52.198;9.902;2023-01-16T02:45:28;98765.94;;;4.75;98.31
17525;BME280;40431;52.198;9.902;2023-01-16T02:48:01;98762.31;;;4.76;98.14
17525;BME280;40431;52.198;9.902;2023-01-16T02:50:32;98755.09;;;4.77;97.65
17525;BME280;40431;52.198;9.902;2023-01-16T02:53:09;98745.91;;;4.66;98.30
17525;BME280;40431;52.198;9.902;2023-01-16T02:55:42;98737.41;;;4.60;98.30
17525;BME280;40431;52.198;9.902;2023-01-16T02:58:13;98732.59;;;4.65;98.37
17525;BME280;40431;52.198;9.902;2023-01-16T03:00:48;98739.59;;;4.67;98.15
17525;BME280;40431;52.198;9.902;2023-01-16T03:03:30;98734.63;;;4.61;98.98
17525;BME280;40431;52.198;9.902;2023-01-16T03:06:03;98723.97;;;4.60;99.62
17525;BME280;40431;52.198;9.902;2023-01-16T03:08:39;98724.44;;;4.66;99.51
17525;BME280;40431;52.198;9.902;2023-01-16T03:11:14;98714.03;;;4.62;100.00
17525;BME280;40431;52.198;9.902;2023-01-16T03:14:16;98715.31;;;4.69;100.00
17525;BME280;40431;52.198;9.902;2023-01-16T03:16:53;98704.59;;;4.69;98.95
17525;BME280;40431;52.198;9.902;2023-01-16T03:19:36;98699.66;;;4.63;99.33
17525;BME280;40431;52.198;9.902;2023-01-16T03:22:12;98684.78;;;4.57;99.41
17525;BME280;40431;52.198;9.902;2023-01-16T03:24:57;98691.66;;;4.61;100.00
17525;BME280;40431;52.198;9.902;2023-01-16T03:27:35;98676.44;;;4.62;100.00
17525;BME280;40431;52.198;9.902;2023-01-16T03:30:11;98680.84;;;4.63;100.00
17525;BME280;40431;52.198;9.902;2023-01-16T03:32:42;98685.06;;;4.67;99.77
17525;BME280;40431;52.198;9.902;2023-01-16T03:35:14;98680.06;;;4.61;99.74
17525;BME280;40431;52.198;9.902;2023-01-16T03:37:45;98663.41;;;4.56;100.00
17525;BME280;40431;52.198;9.902;2023-01-16T03:40:16;98657.09;;;4.57;100.00
17525;BME280;40431;52.198;9.902;2023-01-16T03:42:47;98659.38;;;4.63;100.00
17525;BME280;40431;52.198;9.902;2023-01-16T03:45:19;98655.19;;;4.59;99.73
17525;BME280;40431;52.198;9.902;2023-01-16T03:47:51;98640.97;;;4.57;99.86
17525;BME280;40431;52.198;9.902;2023-01-16T03:50:23;98639.06;;;4.59;99.70
17525;BME280;40431;52.198;9.902;2023-01-16T03:52:55;98642.28;;;4.64;99.53
17525;BME280;40431;52.198;9.902;2023-01-16T03:55:26;98644.22;;;4.62;99.23
17525;BME280;40431;52.198;9.902;2023-01-16T03:57:58;98648.09;;;4.58;99.39
17525;BME280;40431;52.198;9.902;2023-01-16T04:00:29;98639.81;;;4.61;98.93
17525;BME280;40431;52.198;9.902;2023-01-16T04:03:02;98647.81;;;4.48;99.68
17525;BME280;40431;52.198;9.902;2023-01-16T04:05:36;98634.50;;;4.46;100.00
17525;BME280;40431;52.198;9.902;2023-01-16T04:08:10;98628.06;;;4.49;100.00
17525;BME280;40431;52.198;9.902;2023-01-16T04:10:41;98624.72;;;4.45;100.00
17525;BME280;40431;52.198;9.902;2023-01-16T04:13:11;98629.81;;;4.50;100.00
17525;BME280;40431;52.198;9.902;2023-01-16T04:15:41;98619.91;;;4.50;100.00
17525;BME280;40431;52.198;9.902;2023-01-16T04:18:11;98611.31;;;4.45;100.00
17525;BME280;40431;52.198;9.902;2023-01-16T04:20:39;98619.16;;;4.48;100.00
17525;BME280;40431;52.198;9.902;2023-01-16T04:23:08;98616.88;;;4.42;100.00
17525;BME280;40431;52.198;9.902;2023-01-16T04:25:34;98612.41;;;4.43;100.00
17525;BME280;40431;52.198;9.902;2023-01-16T04:28:01;98608.09;;;4.40;100.00
17525;BME280;40431;52.198;9.902;2023-01-16T04:30:27;98609.16;;;4.38;100.00
17525;BME280;40431;52.198;9.902;2023-01-16T04:32:54;98599.28;;;4.38;100.00
17525;BME280;40431;52.198;9.902;2023-01-16T04:35:20;98598.31;;;4.39;100.00
17525;BME280;40431;52.198;9.902;2023-01-16T04:37:49;98594.13;;;4.35;100.00
17525;BME280;40431;52.198;9.902;2023-01-16T04:40:15;98582.84;;;4.30;100.00
17525;BME280;40431;52.198;9.902;2023-01-16T04:42:42;98581.78;;;4.32;100.00
17525;BME280;40431;52.198;9.902;2023-01-16T04:45:09;98570.69;;;4.24;100.00
17525;BME280;40431;52.198;9.902;2023-01-16T04:47:35;98571.78;;;4.34;100.00
17525;BME280;40431;52.198;9.902;2023-01-16T04:50:02;98563.09;;;4.31;100.00
17525;BME280;40431;52.198;9.902;2023-01-16T04:52:29;98560.19;;;4.34;100.00
17525;BME280;40431;52.198;9.902;2023-01-16T04:54:57;98561.94;;;4.35;100.00
17525;BME280;40431;52.198;9.902;2023-01-16T04:57:23;98552.25;;;4.32;100.00
17525;BME280;40431;52.198;9.902;2023-01-16T04:59:50;98548.63;;;4.33;100.00
17525;BME280;40431;52.198;9.902;2023-01-16T05:02:16;98550.53;;;4.31;100.00
17525;BME280;40431;52.198;9.902;2023-01-16T05:04:43;98542.38;;;4.33;100.00
17525;BME280;40431;52.198;9.902;2023-01-16T05:07:09;98539.03;;;4.29;100.00
17525;BME280;40431;52.198;9.902;2023-01-16T05:09:35;98526.91;;;4.24;100.00
17525;BME280;40431;52.198;9.902;2023-01-16T05:12:03;98534.00;;;4.25;100.00
17525;BME280;40431;52.198;9.902;2023-01-16T05:14:30;98521.75;;;4.21;100.00
17525;BME280;40431;52.198;9.902;2023-01-16T05:16:56;98532.25;;;4.24;100.00
17525;BME280;40431;52.198;9.902;2023-01-16T05:19:22;98537.63;;;4.24;100.00
17525;BME280;40431;52.198;9.902;2023-01-16T05:21:49;98518.50;;;4.15;100.00
17525;BME280;40431;52.198;9.902;2023-01-16T05:24:15;98518.72;;;4.12;100.00
17525;BME280;40431;52.198;9.902;2023-01-16T05:26:42;98520.25;;;4.16;100.00
17525;BME280;40431;52.198;9.902;2023-01-16T05:29:09;98516.59;;;4.17;100.00
17525;BME280;40431;52.198;9.902;2023-01-16T05:31:36;98514.97;;;4.15;100.00
17525;BME280;40431;52.198;9.902;2023-01-16T05:34:02;98516.03;;;4.12;100.00
17525;BME280;40431;52.198;9.902;2023-01-16T05:36:29;98505.31;;;4.12;100.00
17525;BME280;40431;52.198;9.902;2023-01-16T05:38:57;98509.91;;;4.10;100.00
17525;BME280;40431;52.198;9.902;2023-01-16T05:41:23;98509.41;;;4.18;100.00
17525;BME280;40431;52.198;9.902;2023-01-16T05:43:50;98509.28;;;4.20;100.00
17525;BME280;40431;52.198;9.902;2023-01-16T05:46:17;98505.44;;;4.24;100.00
17525;BME280;40431;52.198;9.902;2023-01-16T05:48:44;98511.63;;;4.11;100.00
17525;BME280;40431;52.198;9.902;2023-01-16T05:51:10;98509.91;;;4.10;100.00
17525;BME280;40431;52.198;9.902;2023-01-16T05:53:37;98508.00;;;4.12;100.00
17525;BME280;40431;52.198;9.902;2023-01-16T05:56:08;98497.88;;;4.03;100.00
17525;BME280;40431;52.198;9.902;2023-01-16T05:58:35;98485.53;;;4.00;100.00
17525;BME280;40431;52.198;9.902;2023-01-16T06:01:01;98480.28;;;3.99;100.00
17525;BME280;40431;52.198;9.902;2023-01-16T06:03:32;98477.44;;;3.88;100.00
17525;BME280;40431;52.198;9.902;2023-01-16T06:05:58;98484.22;;;3.93;100.00
17525;BME280;40431;52.198;9.902;2023-01-16T06:08:25;98478.75;;;3.95;100.00
17525;BME280;40431;52.198;9.902;2023-01-16T06:10:52;98466.50;;;3.91;100.00
17525;BME280;40431;52.198;9.902;2023-01-16T06:13:19;98461.25;;;3.89;100.00
17525;BME280;40431;52.198;9.902;2023-01-16T06:15:45;98455.66;;;3.79;100.00
17525;BME280;40431;52.198;9.902;2023-01-16T06:18:12;98454.91;;;3.77;100.00
17525;BME280;40431;52.198;9.902;2023-01-16T06:20:40;98458.03;;;3.84;100.00
17525;BME280;40431;52.198;9.902;2023-01-16T06:23:07;98452.56;;;3.85;100.00
17525;BME280;40431;52.198;9.902;2023-01-16T06:25:34;98436.56;;;3.84;100.00
17525;BME280;40431;52.198;9.902;2023-01-16T06:28:00;98440.03;;;3.86;100.00
17525;BME280;40431;52.198;9.902;2023-01-16T06:30:27;98436.38;;;3.87;100.00
17525;BME280;40431;52.198;9.902;2023-01-16T06:32:53;98431.44;;;3.81;100.00
17525;BME280;40431;52.198;9.902;2023-01-16T06:35:19;98421.47;;;3.83;100.00
17525;BME280;40431;52.198;9.902;2023-01-16T06:37:47;98410.94;;;3.80;100.00
17525;BME280;40431;52.198;9.902;2023-01-16T06:40:14;98411.56;;;3.71;100.00
17525;BME280;40431;52.198;9.902;2023-01-16T06:42:40;98407.72;;;3.75;100.00
17525;BME280;40431;52.198;9.902;2023-01-16T06:45:07;98406.09;;;3.72;100.00
17525;BME280;40431;52.198;9.902;2023-01-16T06:47:34;98401.50;;;3.74;100.00
17525;BME280;40431;52.198;9.902;2023-01-16T06:50:00;98396.34;;;3.71;100.00
17525;BME280;40431;52.198;9.902;2023-01-16T06:52:27;98395.38;;;3.72;100.00
17525;BME280;40431;52.198;9.902;2023-01-16T06:54:55;98381.44;;;3.67;100.00
17525;BME280;40431;52.198;9.902;2023-01-16T06:57:22;98387.31;;;3.72;100.00
17525;BME280;40431;52.198;9.902;2023-01-16T06:59:48;98381.34;;;3.68;100.00
17525;BME280;40431;52.198;9.902;2023-01-16T07:02:15;98377.88;;;3.66;100.00
17525;BME280;40431;52.198;9.902;2023-01-16T07:04:41;98386.59;;;3.70;100.00
17525;BME280;40431;52.198;9.902;2023-01-16T07:07:09;98377.66;;;3.70;100.00
17525;BME280;40431;52.198;9.902;2023-01-16T07:09:36;98373.19;;;3.70;100.00
17525;BME280;40431;52.198;9.902;2023-01-16T07:12:04;98373.41;;;3.67;100.00
17525;BME280;40431;52.198;9.902;2023-01-16T07:14:30;98380.81;;;3.76;100.00
17525;BME280;40431;52.198;9.902;2023-01-16T07:17:14;98371.78;;;3.77;100.00
17525;BME280;40431;52.198;9.902;2023-01-16T07:19:54;98375.97;;;3.81;100.00
17525;BME280;40431;52.198;9.902;2023-01-16T07:22:38;98356.38;;;3.81;100.00
17525;BME280;40431;52.198;9.902;2023-01-16T07:25:11;98350.69;;;3.85;100.00
17525;BME280;40431;52.198;9.902;2023-01-16T07:27:41;98353.03;;;3.77;100.00
17525;BME280;40431;52.198;9.902;2023-01-16T07:30:09;98338.00;;;3.75;100.00
17525;BME280;40431;52.198;9.902;2023-01-16T07:32:37;98349.41;;;3.78;100.00
17525;BME280;40431;52.198;9.902;2023-01-16T07:35:04;98341.34;;;3.78;100.00
17525;BME280;40431;52.198;9.902;2023-01-16T07:37:31;98313.16;;;3.73;100.00
17525;BME280;40431;52.198;9.902;2023-01-16T07:39:57;98318.06;;;3.79;100.00
17525;BME280;40431;52.198;9.902;2023-01-16T07:42:23;98328.72;;;3.80;100.00
17525;BME280;40431;52.198;9.902;2023-01-16T07:44:51;98313.03;;;3.74;100.00
17525;BME280;40431;52.198;9.902;2023-01-16T07:47:18;98315.72;;;3.74;100.00
17525;BME280;40431;52.198;9.902;2023-01-16T07:49:44;98308.63;;;3.73;100.00
17525;BME280;40431;52.198;9.902;2023-01-16T07:52:10;98302.63;;;3.70;100.00
17525;BME280;40431;52.198;9.902;2023-01-16T07:54:37;98314.00;;;3.73;100.00
17525;BME280;40431;52.198;9.902;2023-01-16T07:57:05;98313.25;;;3.71;100.00
17525;BME280;40431;52.198;9.902;2023-01-16T07:59:32;98306.72;;;3.75;100.00
17525;BME280;40431;52.198;9.902;2023-01-16T08:02:00;98302.88;;;3.79;100.00
17525;BME280;40431;52.198;9.902;2023-01-16T08:04:27;98298.59;;;3.90;100.00
17525;BME280;40431;52.198;9.902;2023-01-16T08:06:53;98286.88;;;3.91;100.00
17525;BME280;40431;52.198;9.902;2023-01-16T08:09:20;98286.16;;;4.01;100.00
17525;BME280;40431;52.198;9.902;2023-01-16T08:11:46;98289.13;;;4.10;100.00
17525;BME280;40431;52.198;9.902;2023-01-16T08:14:13;98288.06;;;4.12;100.00
17525;BME280;40431;52.198;9.902;2023-01-16T08:16:40;98272.69;;;4.14;100.00
17525;BME280;40431;52.198;9.902;2023-01-16T08:19:08;98267.03;;;4.06;100.00
17525;BME280;40431;52.198;9.902;2023-01-16T08:21:34;98270.03;;;4.14;100.00
17525;BME280;40431;52.198;9.902;2023-01-16T08:24:00;98266.91;;;4.21;100.00
17525;BME280;40431;52.198;9.902;2023-01-16T08:26:27;98255.22;;;4.22;100.00
17525;BME280;40431;52.198;9.902;2023-01-16T08:28:54;98257.31;;;4.29;100.00
17525;BME280;40431;52.198;9.902;2023-01-16T08:31:20;98251.66;;;4.34;100.00
17525;BME280;40431;52.198;9.902;2023-01-16T08:33:48;98230.41;;;4.31;100.00
17525;BME280;40431;52.198;9.902;2023-01-16T08:36:16;98228.13;;;4.38;100.00
17525;BME280;40431;52.198;9.902;2023-01-16T08:38:45;98217.81;;;4.44;100.00
17525;BME280;40431;52.198;9.902;2023-01-16T08:41:12;98211.56;;;4.44;100.00
17525;BME280;40431;52.198;9.902;2023-01-16T08:43:52;98208.97;;;4.55;100.00
17525;BME280;40431;52.198;9.902;2023-01-16T08:46:36;98189.81;;;4.60;100.00
17525;BME280;40431;52.198;9.902;2023-01-16T08:49:20;98205.72;;;4.63;100.00
17525;BME280;40431;52.198;9.902;2023-01-16T08:52:06;98194.97;;;4.63;100.00
17525;BME280;40431;52.198;9.902;2023-01-16T08:54:33;98197.31;;;4.67;100.00
17525;BME280;40431;52.198;9.902;2023-01-16T08:56:59;98196.22;;;4.70;100.00
17525;BME280;40431;52.198;9.902;2023-01-16T08:59:26;98196.00;;;4.73;100.00
17525;BME280;40431;52.198;9.902;2023-01-16T09:01:58;98192.72;;;4.81;100.00
17525;BME280;40431;52.198;9.902;2023-01-16T09:04:25;98180.06;;;4.83;100.00
17525;BME280;40431;52.198;9.902;2023-01-16T09:06:51;98187.44;;;4.92;100.00
17525;BME280;40431;52.198;9.902;2023-01-16T09:09:20;98175.34;;;4.98;100.00
17525;BME280;40431;52.198;9.902;2023-01-16T09:11:53;98170.25;;;5.06;100.00
17525;BME280;40431;52.198;9.902;2023-01-16T09:14:37;98154.38;;;5.03;100.00
17525;BME280;40431;52.198;9.902;2023-01-16T09:17:03;98164.88;;;5.06;100.00
17525;BME280;40431;52.198;9.902;2023-01-16T09:19:31;98163.41;;;5.02;100.00
17525;BME280;40431;52.198;9.902;2023-01-16T09:21:57;98160.19;;;4.97;100.00
17525;BME280;40431;52.198;9.902;2023-01-16T09:24:25;98153.88;;;4.98;100.00
17525;BME280;40431;52.198;9.902;2023-01-16T09:26:51;98152.03;;;4.98;100.00
17525;BME280;40431;52.198;9.902;2023-01-16T09:29:18;98149.34;;;4.98;100.00
17525;BME280;40431;52.198;9.902;2023-01-16T09:31:44;98138.22;;;4.92;100.00
17525;BME280;40431;52.198;9.902;2023-01-16T09:34:10;98134.56;;;4.93;100.00
17525;BME280;40431;52.198;9.902;2023-01-16T09:36:37;98121.59;;;4.87;100.00
17525;BME280;40431;52.198;9.902;2023-01-16T09:39:03;98112.44;;;4.78;100.00
17525;BME280;40431;52.198;9.902;2023-01-16T09:41:33;98103.03;;;4.83;100.00
17525;BME280;40431;52.198;9.902;2023-01-16T09:44:19;98111.13;;;4.95;100.00
17525;BME280;40431;52.198;9.902;2023-01-16T09:46:48;98104.31;;;5.02;100.00
17525;BME280;40431;52.198;9.902;2023-01-16T09:49:20;98103.22;;;5.05;100.00
17525;BME280;40431;52.198;9.902;2023-01-16T09:51:52;98088.69;;;5.07;100.00
17525;BME280;40431;52.198;9.902;2023-01-16T09:54:41;98093.22;;;5.18;100.00
17525;BME280;40431;52.198;9.902;2023-01-16T09:57:30;98082.13;;;5.23;100.00
17525;BME280;40431;52.198;9.902;2023-01-16T10:00:18;98076.63;;;5.24;98.85
17525;BME280;40431;52.198;9.902;2023-01-16T10:02:46;98068.19;;;5.29;99.26
17525;BME280;40431;52.198;9.902;2023-01-16T10:05:12;98069.66;;;5.33;97.72
17525;BME280;40431;52.198;9.902;2023-01-16T10:07:48;98056.97;;;5.35;97.48
17525;BME280;40431;52.198;9.902;2023-01-16T10:10:26;98039.88;;;5.36;97.03
17525;BME280;40431;52.198;9.902;2023-01-16T10:13:03;98023.25;;;5.42;97.05
17525;BME280;40431;52.198;9.902;2023-01-16T10:15:40;98028.13;;;5.48;96.54
17525;BME280;40431;52.198;9.902;2023-01-16T10:18:22;98019.81;;;5.51;96.24
17525;BME280;40431;52.198;9.902;2023-01-16T10:21:01;98005.41;;;5.52;96.13
17525;BME280;40431;52.198;9.902;2023-01-16T10:23:43;98004.66;;;5.62;95.16
17525;BME280;40431;52.198;9.902;2023-01-16T10:26:18;97988.53;;;5.62;94.48
17525;BME280;40431;52.198;9.902;2023-01-16T10:28:55;97984.84;;;5.63;94.31
17525;BME280;40431;52.198;9.902;2023-01-16T10:31:26;97979.84;;;5.69;94.13
17525;BME280;40431;52.198;9.902;2023-01-16T10:33:58;97954.88;;;5.67;93.07
17525;BME280;40431;52.198;9.902;2023-01-16T10:36:28;97953.56;;;5.62;92.28
17525;BME280;40431;52.198;9.902;2023-01-16T10:38:57;97939.16;;;5.63;91.51
17525;BME280;40431;52.198;9.902;2023-01-16T10:41:27;97935.00;;;5.59;90.68
17525;BME280;40431;52.198;9.902;2023-01-16T10:44:23;97918.88;;;5.59;91.71
17525;BME280;40431;52.198;9.902;2023-01-16T10:47:11;97927.94;;;5.58;92.33
17525;BME280;40431;52.198;9.902;2023-01-16T10:49:56;97929.38;;;5.62;91.98
17525;BME280;40431;52.198;9.902;2023-01-16T10:52:23;97917.53;;;5.64;90.74
17525;BME280;40431;52.198;9.902;2023-01-16T10:54:51;97904.91;;;5.65;89.92
17525;BME280;40431;52.198;9.902;2023-01-16T10:57:19;97900.53;;;5.64;89.75
17525;BME280;40431;52.198;9.902;2023-01-16T10:59:50;97884.66;;;5.61;89.92
17525;BME280;40431;52.198;9.902;2023-01-16T11:02:19;97878.09;;;5.54;90.22
17525;BME280;40431;52.198;9.902;2023-01-16T11:04:52;97871.00;;;5.52;89.65
17525;BME280;40431;52.198;9.902;2023-01-16T11:07:20;97874.44;;;5.55;89.61
17525;BME280;40431;52.198;9.902;2023-01-16T11:09:47;97857.56;;;5.52;89.57
17525;BME280;40431;52.198;9.902;2023-01-16T11:12:25;97858.25;;;5.66;88.15
17525;BME280;40431;52.198;9.902;2023-01-16T11:15:18;97832.34;;;5.65;88.15
17525;BME280;40431;52.198;9.902;2023-01-16T11:18:19;97813.78;;;5.62;87.58
17525;BME280;40431;52.198;9.902;2023-01-16T11:20:54;97793.25;;;5.61;87.34
17525;BME280;40431;52.198;9.902;2023-01-16T11:23:24;97784.22;;;5.62;87.20
17525;BME280;40431;52.198;9.902;2023-01-16T11:25:52;97783.38;;;5.61;86.68
17525;BME280;40431;52.198;9.902;2023-01-16T11:28:24;97766.69;;;5.67;87.26
17525;BME280;40431;52.198;9.902;2023-01-16T11:30:54;97772.94;;;5.68;85.38
17525;BME280;40431;52.198;9.902;2023-01-16T11:33:23;97773.41;;;5.73;84.94
17525;BME280;40431;52.198;9.902;2023-01-16T11:35:54;97752.00;;;5.72;85.25
17525;BME280;40431;52.198;9.902;2023-01-16T11:38:22;97758.25;;;5.72;85.37
17525;BME280;40431;52.198;9.902;2023-01-16T11:40:50;97740.13;;;5.74;86.03
17525;BME280;40431;52.198;9.902;2023-01-16T11:43:22;97740.34;;;5.82;84.67
17525;BME280;40431;52.198;9.902;2023-01-16T11:46:27;97730.28;;;5.84;84.42
17525;BME280;40431;52.198;9.902;2023-01-16T11:48:58;97734.84;;;5.84;84.91
17525;BME280;40431;52.198;9.902;2023-01-16T11:51:28;97721.53;;;5.82;83.67
17525;BME280;40431;52.198;9.902;2023-01-16T11:53:55;97716.72;;;5.86;83.63
17525;BME280;40431;52.198;9.902;2023-01-16T11:56:45;97711.09;;;5.89;83.73
17525;BME280;40431;52.198;9.902;2023-01-16T11:59:31;97709.38;;;5.88;84.15
17525;BME280;40431;52.198;9.902;2023-01-16T12:02:13;97699.91;;;5.94;83.60
17525;BME280;40431;52.198;9.902;2023-01-16T12:04:46;97683.06;;;5.92;83.85
17525;BME280;40431;52.198;9.902;2023-01-16T12:07:41;97673.53;;;5.88;83.82
17525;BME280;40431;52.198;9.902;2023-01-16T12:10:21;97678.41;;;5.94;84.01
17525;BME280;40431;52.198;9.902;2023-01-16T12:12:52;97667.91;;;5.91;83.48
17525;BME280;40431;52.198;9.902;2023-01-16T12:15:51;97657.41;;;5.88;83.04
17525;BME280;40431;52.198;9.902;2023-01-16T12:18:31;97650.34;;;5.87;83.70
17525;BME280;40431;52.198;9.902;2023-01-16T12:21:01;97636.03;;;5.86;84.70
17525;BME280;40431;52.198;9.902;2023-01-16T12:23:41;97631.78;;;5.83;85.00
17525;BME280;40431;52.198;9.902;2023-01-16T12:26:18;97628.13;;;5.84;85.80
17525;BME280;40431;52.198;9.902;2023-01-16T12:28:55;97616.38;;;5.85;85.27
17525;BME280;40431;52.198;9.902;2023-01-16T12:31:36;97617.94;;;5.88;85.60
17525;BME280;40431;52.198;9.902;2023-01-16T12:34:18;97606.59;;;5.84;85.65
17525;BME280;40431;52.198;9.902;2023-01-16T12:36:58;97599.25;;;5.87;85.78
17525;BME280;40431;52.198;9.902;2023-01-16T12:39:34;97587.38;;;5.89;85.93
17525;BME280;40431;52.198;9.902;2023-01-16T12:42:11;97576.47;;;5.91;85.61
17525;BME280;40431;52.198;9.902;2023-01-16T12:45:10;97570.69;;;5.95;83.87
17525;BME280;40431;52.198;9.902;2023-01-16T12:47:50;97567.28;;;5.93;84.05
17525;BME280;40431;52.198;9.902;2023-01-16T12:50:36;97560.53;;;5.99;84.15
17525;BME280;40431;52.198;9.902;2023-01-16T12:53:21;97563.06;;;6.00;83.10
17525;BME280;40431;52.198;9.902;2023-01-16T12:55:56;97559.25;;;6.03;83.03
17525;BME280;40431;52.198;9.902;2023-01-16T12:58:27;97554.03;;;6.01;83.26
17525;BME280;40431;52.198;9.902;2023-01-16T13:01:02;97548.94;;;6.08;82.81
17525;BME280;40431;52.198;9.902;2023-01-16T13:03:36;97547.66;;;6.12;83.98
17525;BME280;40431;52.198;9.902;2023-01-16T13:06:08;97534.22;;;6.12;83.27
17525;BME280;40431;52.198;9.902;2023-01-16T13:08:38;97535.34;;;6.10;83.22
17525;BME280;40431;52.198;9.902;2023-01-16T13:11:10;97527.84;;;6.13;83.76
17525;BME280;40431;52.198;9.902;2023-01-16T13:13:58;97528.44;;;6.17;83.45
17525;BME280;40431;52.198;9.902;2023-01-16T13:16:30;97525.16;;;6.13;83.34
17525;BME280;40431;52.198;9.902;2023-01-16T13:19:00;97523.16;;;6.15;83.73
17525;BME280;40431;52.198;9.902;2023-01-16T13:21:34;97520.91;;;6.11;83.88
17525;BME280;40431;52.198;9.902;2023-01-16T13:24:10;97516.94;;;6.15;83.65
17525;BME280;40431;52.198;9.902;2023-01-16T13:26:41;97511.41;;;6.16;83.46
17525;BME280;40431;52.198;9.902;2023-01-16T13:29:11;97516.38;;;6.11;83.35